Sakura — JG5711 — position and weather

sailwx.info

Track history (hours):
 
Tides and Currents Weather Stations Pressure Air Temp Water Temp Dewpoint Dewpoint Depression Visibility Wind Speed Wind Dir Waves Ship Positions

Sakura

Last reported at 2016-May-25 07:10 UTC. Time now 2016-May-25 11:12 UTC.
Position N 35°27' E 139°40'.

Length 32 m; draft 3.6 m.

Type: Tug. MMSI: 431101178.

Date/timePositionNaut miles runAvg speedWind from/ knotsBaromVisibWave heightAir tempDewpointWater temp
2016-May-25 07:10N 35°27' E 139°40'0 0.0
2016-May-25 06:33N 35°27' E 139°40'0 0.0
2016-May-25 05:33N 35°27' E 139°40'0 0.0
2016-May-25 04:33N 35°27' E 139°40'0 0.0
2016-May-25 03:33N 35°27' E 139°40'1 1.2
2016-May-25 02:33N 35°26' E 139°41'1 1.2
2016-May-25 01:33N 35°27' E 139°40'0 0.0
2016-May-25 00:33N 35°27' E 139°40'0 0.0
2016-May-24 23:33N 35°27' E 139°40'0 0.0
2016-May-23 23:15N 35°27' E 139°40'2 2.8
2016-May-23 22:33N 35°28' E 139°42'1 1.5
2016-May-23 21:33N 35°26' E 139°43'1 0.6
2016-May-23 20:33N 35°27' E 139°42'1 0.9
2016-May-23 19:33N 35°27' E 139°41'1 0.6
2016-May-23 18:33N 35°26' E 139°42'0 0.0
2016-May-23 17:33N 35°26' E 139°42'0 0.0
2016-May-23 16:33N 35°26' E 139°42'1 0.7
2016-May-23 15:33N 35°26' E 139°41'1 1.4
2016-May-23 14:33N 35°27' E 139°39'0 0.0
2016-May-23 13:33N 35°27' E 139°39'0 0.0
2016-May-23 12:33N 35°27' E 139°39'0 0.0
2016-May-23 11:33N 35°27' E 139°39'0 0.0
2016-May-23 10:33N 35°27' E 139°39'0 0.1
2016-May-23 09:33N 35°27' E 139°39'0 0.1
2016-May-23 08:33N 35°27' E 139°39'1 1.4
2016-May-23 07:33N 35°26' E 139°41'0 0.3
2016-May-23 06:33N 35°26' E 139°41'1 1.3
2016-May-23 05:33N 35°27' E 139°40'0 0.0
2016-May-23 04:33N 35°27' E 139°40'0 0.0
2016-May-23 03:33N 35°27' E 139°40'0 0.0
2016-May-23 02:34N 35°27' E 139°40'0 0.0
2016-May-23 01:33N 35°27' E 139°40'0 0.0
2016-May-23 00:33N 35°27' E 139°40'0 0.0
2016-May-22 23:33N 35°27' E 139°40'0 0.0
2016-May-22 07:10N 35°27' E 139°40'0 0.0
2016-May-22 06:33N 35°27' E 139°40'0 0.0
2016-May-22 05:33N 35°27' E 139°40'0 0.5
2016-May-22 04:33N 35°27' E 139°40'4 3.7
2016-May-22 03:33N 35°24' E 139°38'0 0.0
2016-May-22 02:33N 35°24' E 139°38'2 2.2
2016-May-22 01:33N 35°23' E 139°41'2 2.4
2016-May-22 00:33N 35°25' E 139°42'2 2.3
2016-May-21 23:33N 35°27' E 139°40'0 0.0
2016-May-20 07:03N 35°27' E 139°40'0 0.0
2016-May-20 06:33N 35°27' E 139°40'0 0.0
2016-May-20 05:33N 35°27' E 139°40'0 0.0
2016-May-20 04:33N 35°27' E 139°40'0 0.0
2016-May-20 03:34N 35°27' E 139°40'0 0.0
2016-May-20 02:33N 35°27' E 139°40'0 0.0
2016-May-20 01:33N 35°27' E 139°40'0 0.0
2016-May-20 00:33N 35°27' E 139°40'1 1.1
2016-May-19 23:34N 35°27' E 139°41'2 2.1
2016-May-19 22:34N 35°26' E 139°42'3 2.5
2016-May-19 21:33N 35°27' E 139°40'3 0.2
2016-May-19 07:14N 35°27' E 139°43'2 2.9
2016-May-19 06:33N 35°28' E 139°45'5 4.7
2016-May-19 05:33N 35°27' E 139°39'0 0.0
2016-May-19 04:33N 35°27' E 139°39'2 2.5
2016-May-19 03:34N 35°26' E 139°42'2 2.4
2016-May-19 02:33N 35°27' E 139°39'0 0.0
2016-May-19 01:33N 35°27' E 139°39'0 0.0
2016-May-19 00:33N 35°27' E 139°39'0 0.0
2016-May-18 23:33N 35°27' E 139°39'0 0.0
2016-May-18 22:33N 35°27' E 139°39'0 0.0
2016-May-18 21:33N 35°27' E 139°39'0 0.0
2016-May-18 20:33N 35°27' E 139°39'2 0.2
2016-May-18 08:33N 35°26' E 139°41'1 0.7
2016-May-18 07:33N 35°25' E 139°42'2 2.5
2016-May-18 06:33N 35°27' E 139°39'0 0.0
2016-May-18 05:33N 35°27' E 139°39'0 0.0
2016-May-18 04:33N 35°27' E 139°39'0 0.0
2016-May-18 03:33N 35°27' E 139°39'0 0.0
2016-May-18 02:33N 35°27' E 139°39'0 0.0
2016-May-18 01:33N 35°27' E 139°39'2 1.6
2016-May-18 00:34N 35°27' E 139°41'2 1.6
2016-May-17 23:34N 35°27' E 139°39'4 0.2
2016-May-17 07:34N 35°28' E 139°44'1 0.8
2016-May-17 06:33N 35°29' E 139°44'4 4.4
2016-May-17 05:33N 35°27' E 139°39'0 0.0
2016-May-17 04:33N 35°27' E 139°39'0 0.0
2016-May-17 03:34N 35°27' E 139°39'0 0.0
2016-May-17 02:33N 35°27' E 139°39'0 0.0
2016-May-17 01:33N 35°27' E 139°39'2 2.2
2016-May-17 00:33N 35°26' E 139°42'0 0.0
2016-May-16 23:33N 35°26' E 139°42'0 0.0
2016-May-16 22:33N 35°26' E 139°42'1 1.0
2016-May-16 21:34N 35°25' E 139°41'2 2.0
2016-May-16 20:33N 35°27' E 139°41'1 0.1
2016-May-16 09:26N 35°27' E 139°40'2 2.1
2016-May-16 08:33N 35°27' E 139°42'0 0.4
2016-May-16 07:33N 35°27' E 139°42'2 1.5
2016-May-16 06:33N 35°28' E 139°41'1 1.5
2016-May-16 05:34N 35°28' E 139°43'1 0.9
2016-May-16 04:34N 35°27' E 139°43'0 0.5
2016-May-16 03:33N 35°27' E 139°43'0 0.0
2016-May-16 02:33N 35°27' E 139°43'2 2.3
2016-May-16 01:33N 35°27' E 139°40'0 0.4
2016-May-16 00:33N 35°27' E 139°39'0 0.0
2016-May-15 23:33N 35°27' E 139°39'  
Track history (hours):
 
Tides and Currents Weather Stations Pressure Air Temp Water Temp Dewpoint Dewpoint Depression Visibility Wind Speed Wind Dir Waves Ship Positions

Sakura

Last reported at 2016-May-25 07:10 UTC. Time now 2016-May-25 11:12 UTC.
Position N 35°27' E 139°40'.

Length 32 m; draft 3.6 m.

Type: Tug. MMSI: 431101178.

Date/timePositionNaut miles runAvg speedWind from/ knotsBaromVisibWave heightAir tempDewpointWater temp
2016-May-25 07:10N 35°27' E 139°40'0 0.0
2016-May-25 06:33N 35°27' E 139°40'0 0.0
2016-May-25 05:33N 35°27' E 139°40'0 0.0
2016-May-25 04:33N 35°27' E 139°40'0 0.0
2016-May-25 03:33N 35°27' E 139°40'1 1.2
2016-May-25 02:33N 35°26' E 139°41'1 1.2
2016-May-25 01:33N 35°27' E 139°40'0 0.0
2016-May-25 00:33N 35°27' E 139°40'0 0.0
2016-May-24 23:33N 35°27' E 139°40'0 0.0
2016-May-23 23:15N 35°27' E 139°40'2 2.8
2016-May-23 22:33N 35°28' E 139°42'1 1.5
2016-May-23 21:33N 35°26' E 139°43'1 0.6
2016-May-23 20:33N 35°27' E 139°42'1 0.9
2016-May-23 19:33N 35°27' E 139°41'1 0.6
2016-May-23 18:33N 35°26' E 139°42'0 0.0
2016-May-23 17:33N 35°26' E 139°42'0 0.0
2016-May-23 16:33N 35°26' E 139°42'1 0.7
2016-May-23 15:33N 35°26' E 139°41'1 1.4
2016-May-23 14:33N 35°27' E 139°39'0 0.0
2016-May-23 13:33N 35°27' E 139°39'0 0.0
2016-May-23 12:33N 35°27' E 139°39'0 0.0
2016-May-23 11:33N 35°27' E 139°39'0 0.0
2016-May-23 10:33N 35°27' E 139°39'0 0.1
2016-May-23 09:33N 35°27' E 139°39'0 0.1
2016-May-23 08:33N 35°27' E 139°39'1 1.4
2016-May-23 07:33N 35°26' E 139°41'0 0.3
2016-May-23 06:33N 35°26' E 139°41'1 1.3
2016-May-23 05:33N 35°27' E 139°40'0 0.0
2016-May-23 04:33N 35°27' E 139°40'0 0.0
2016-May-23 03:33N 35°27' E 139°40'0 0.0
2016-May-23 02:34N 35°27' E 139°40'0 0.0
2016-May-23 01:33N 35°27' E 139°40'0 0.0
2016-May-23 00:33N 35°27' E 139°40'0 0.0
2016-May-22 23:33N 35°27' E 139°40'0 0.0
2016-May-22 07:10N 35°27' E 139°40'0 0.0
2016-May-22 06:33N 35°27' E 139°40'0 0.0
2016-May-22 05:33N 35°27' E 139°40'0 0.5
2016-May-22 04:33N 35°27' E 139°40'4 3.7
2016-May-22 03:33N 35°24' E 139°38'0 0.0
2016-May-22 02:33N 35°24' E 139°38'2 2.2
2016-May-22 01:33N 35°23' E 139°41'2 2.4
2016-May-22 00:33N 35°25' E 139°42'2 2.3
2016-May-21 23:33N 35°27' E 139°40'0 0.0
2016-May-20 07:03N 35°27' E 139°40'0 0.0
2016-May-20 06:33N 35°27' E 139°40'0 0.0
2016-May-20 05:33N 35°27' E 139°40'0 0.0
2016-May-20 04:33N 35°27' E 139°40'0 0.0
2016-May-20 03:34N 35°27' E 139°40'0 0.0
2016-May-20 02:33N 35°27' E 139°40'0 0.0
2016-May-20 01:33N 35°27' E 139°40'0 0.0
2016-May-20 00:33N 35°27' E 139°40'1 1.1
2016-May-19 23:34N 35°27' E 139°41'2 2.1
2016-May-19 22:34N 35°26' E 139°42'3 2.5
2016-May-19 21:33N 35°27' E 139°40'3 0.2
2016-May-19 07:14N 35°27' E 139°43'2 2.9
2016-May-19 06:33N 35°28' E 139°45'5 4.7
2016-May-19 05:33N 35°27' E 139°39'0 0.0
2016-May-19 04:33N 35°27' E 139°39'2 2.5
2016-May-19 03:34N 35°26' E 139°42'2 2.4
2016-May-19 02:33N 35°27' E 139°39'0 0.0
2016-May-19 01:33N 35°27' E 139°39'0 0.0
2016-May-19 00:33N 35°27' E 139°39'0 0.0
2016-May-18 23:33N 35°27' E 139°39'0 0.0
2016-May-18 22:33N 35°27' E 139°39'0 0.0
2016-May-18 21:33N 35°27' E 139°39'0 0.0
2016-May-18 20:33N 35°27' E 139°39'2 0.2
2016-May-18 08:33N 35°26' E 139°41'1 0.7
2016-May-18 07:33N 35°25' E 139°42'2 2.5
2016-May-18 06:33N 35°27' E 139°39'0 0.0
2016-May-18 05:33N 35°27' E 139°39'0 0.0
2016-May-18 04:33N 35°27' E 139°39'0 0.0
2016-May-18 03:33N 35°27' E 139°39'0 0.0
2016-May-18 02:33N 35°27' E 139°39'0 0.0
2016-May-18 01:33N 35°27' E 139°39'2 1.6
2016-May-18 00:34N 35°27' E 139°41'2 1.6
2016-May-17 23:34N 35°27' E 139°39'4 0.2
2016-May-17 07:34N 35°28' E 139°44'1 0.8
2016-May-17 06:33N 35°29' E 139°44'4 4.4
2016-May-17 05:33N 35°27' E 139°39'0 0.0
2016-May-17 04:33N 35°27' E 139°39'0 0.0
2016-May-17 03:34N 35°27' E 139°39'0 0.0
2016-May-17 02:33N 35°27' E 139°39'0 0.0
2016-May-17 01:33N 35°27' E 139°39'2 2.2
2016-May-17 00:33N 35°26' E 139°42'0 0.0
2016-May-16 23:33N 35°26' E 139°42'0 0.0
2016-May-16 22:33N 35°26' E 139°42'1 1.0
2016-May-16 21:34N 35°25' E 139°41'2 2.0
2016-May-16 20:33N 35°27' E 139°41'1 0.1
2016-May-16 09:26N 35°27' E 139°40'2 2.1
2016-May-16 08:33N 35°27' E 139°42'0 0.4
2016-May-16 07:33N 35°27' E 139°42'2 1.5
2016-May-16 06:33N 35°28' E 139°41'1 1.5
2016-May-16 05:34N 35°28' E 139°43'1 0.9
2016-May-16 04:34N 35°27' E 139°43'0 0.5
2016-May-16 03:33N 35°27' E 139°43'0 0.0
2016-May-16 02:33N 35°27' E 139°43'2 2.3
2016-May-16 01:33N 35°27' E 139°40'0 0.4
2016-May-16 00:33N 35°27' E 139°39'0 0.0
2016-May-15 23:33N 35°27' E 139°39'  

Dump ship's entire track history